createdAt,value
2023-03-06T00:02:07.157Z,2.03
2023-03-06T00:07:08.628Z,1.81
2023-03-06T00:12:09.953Z,1.89
2023-03-06T00:17:13.071Z,1.99
2023-03-06T00:22:14.991Z,1.97
2023-03-06T00:27:16.325Z,1.93
2023-03-06T00:32:17.673Z,2.03
2023-03-06T00:37:19.440Z,2.04
2023-03-06T00:42:20.867Z,2.02
2023-03-06T00:47:22.163Z,2.02
2023-03-06T00:52:23.690Z,2.03
2023-03-06T00:57:25.100Z,2.00
2023-03-06T01:02:26.436Z,2.01
2023-03-06T01:07:28.512Z,2.00
2023-03-06T01:12:29.862Z,2.09
2023-03-06T01:17:31.163Z,2.02
2023-03-06T01:22:32.500Z,1.84
2023-03-06T01:27:33.827Z,1.98
2023-03-06T01:32:35.249Z,2.05
2023-03-06T01:37:37.310Z,1.90
2023-03-06T01:42:38.827Z,1.77
2023-03-06T01:47:40.287Z,1.71
2023-03-06T01:52:52.922Z,1.92
2023-03-06T01:57:57.599Z,1.85
2023-03-06T02:03:06.512Z,1.73
2023-03-06T02:08:09.459Z,1.74
2023-03-06T02:13:10.766Z,1.71
2023-03-06T02:18:12.140Z,1.75
2023-03-06T02:23:29.993Z,1.78
2023-03-06T02:28:31.338Z,1.79
2023-03-06T02:33:32.998Z,1.73
2023-03-06T02:38:37.340Z,1.57
2023-03-06T02:43:39.755Z,1.56
2023-03-06T02:48:41.050Z,1.59
2023-03-06T02:53:42.336Z,1.54
2023-03-06T02:58:43.700Z,1.49
2023-03-06T03:03:45.260Z,1.49
2023-03-06T03:08:46.570Z,1.49
2023-03-06T03:13:47.868Z,1.52
2023-03-06T03:18:50.958Z,1.56
2023-03-06T03:23:52.286Z,1.50
2023-03-06T03:28:53.574Z,1.47
2023-03-06T03:33:54.866Z,1.48
2023-03-06T03:38:57.631Z,1.46
2023-03-06T03:43:59.080Z,1.53
2023-03-06T03:49:00.734Z,1.50
2023-03-06T03:54:02.563Z,1.44
2023-03-06T03:59:03.862Z,1.43
2023-03-06T04:04:05.338Z,1.45
2023-03-06T04:09:06.916Z,1.56
2023-03-06T04:14:09.733Z,1.49
2023-03-06T04:19:11.675Z,1.48
2023-03-06T04:24:13.072Z,1.50
2023-03-06T04:29:14.386Z,1.33
2023-03-06T04:34:15.687Z,1.28
2023-03-06T04:39:16.997Z,1.11
2023-03-06T04:44:18.300Z,1.14
2023-03-06T04:49:19.635Z,1.17
2023-03-06T04:54:20.936Z,1.12
2023-03-06T04:59:22.239Z,1.13
2023-03-06T05:04:23.542Z,1.16
2023-03-06T05:09:24.908Z,1.15
2023-03-06T05:14:28.707Z,1.21
2023-03-06T05:19:30.090Z,1.02
2023-03-06T05:24:31.453Z,1.10
2023-03-06T05:29:32.829Z,1.14
2023-03-06T05:34:34.138Z,1.09
2023-03-06T05:39:35.559Z,1.03
2023-03-06T05:44:37.967Z,1.10
2023-03-06T05:49:39.407Z,1.12
2023-03-06T05:54:40.726Z,1.15
2023-03-06T05:59:43.214Z,1.13
2023-03-06T06:04:44.820Z,1.15
2023-03-06T06:09:46.326Z,1.11
2023-03-06T06:14:47.639Z,1.16
2023-03-06T06:19:49.157Z,1.15
2023-03-06T06:24:50.454Z,1.12
2023-03-06T06:29:52.549Z,1.20
2023-03-06T06:34:53.969Z,1.29
2023-03-06T06:39:55.315Z,1.38
2023-03-06T06:44:56.631Z,1.48
2023-03-06T06:49:58.000Z,1.60
2023-03-06T06:54:59.335Z,1.59
2023-03-06T07:00:00.645Z,1.55
2023-03-06T07:05:04.953Z,1.54
2023-03-06T07:10:08.243Z,1.63
2023-03-06T07:15:12.478Z,1.84
2023-03-06T07:20:13.994Z,1.82
2023-03-06T07:25:15.722Z,1.88
2023-03-06T07:30:17.158Z,1.82
2023-03-06T07:35:20.425Z,1.75
2023-03-06T07:40:22.742Z,1.97
2023-03-06T07:45:24.371Z,2.04
2023-03-06T07:50:26.076Z,2.13
2023-03-06T07:55:27.675Z,2.15
2023-03-06T08:00:29.012Z,2.29
2023-03-06T08:05:30.427Z,2.46
2023-03-06T08:10:31.774Z,2.90
2023-03-06T08:15:33.073Z,2.58
2023-03-06T08:20:34.399Z,2.80
2023-03-06T08:25:36.133Z,2.66
2023-03-06T08:30:37.431Z,2.71
2023-03-06T08:35:39.041Z,3.01
2023-03-06T08:40:40.443Z,3.92
2023-03-06T08:45:41.842Z,4.48
2023-03-06T08:50:43.147Z,4.78
2023-03-06T08:55:44.738Z,4.13
2023-03-06T09:00:46.522Z,3.95
2023-03-06T09:05:47.928Z,4.31
2023-03-06T09:10:49.308Z,4.06
2023-03-06T09:15:50.655Z,4.38
2023-03-06T09:20:51.980Z,4.83
2023-03-06T09:25:53.809Z,4.35
2023-03-06T09:30:55.205Z,4.78
2023-03-06T09:35:56.640Z,5.49
2023-03-06T09:40:58.115Z,5.53
2023-03-06T09:45:59.547Z,5.40
2023-03-06T09:51:07.415Z,6.06
2023-03-06T09:56:16.290Z,5.95
2023-03-06T10:01:26.823Z,5.77
2023-03-06T10:06:30.676Z,5.64
2023-03-06T10:11:50.614Z,5.83
2023-03-06T10:16:51.990Z,6.03
2023-03-06T10:21:59.341Z,5.79
2023-03-06T10:27:16.845Z,5.71
2023-03-06T10:32:42.827Z,4.94
2023-03-06T10:37:49.520Z,5.26
2023-03-06T10:42:58.777Z,5.37
2023-03-06T10:48:11.892Z,5.32
2023-03-06T10:53:26.552Z,5.15
2023-03-06T10:58:27.870Z,5.18
2023-03-06T11:03:29.504Z,5.65
2023-03-06T11:08:31.248Z,6.01
2023-03-06T11:13:36.527Z,7.17
2023-03-06T11:18:42.741Z,7.87
2023-03-06T11:23:45.673Z,7.57
2023-03-06T11:28:47.053Z,7.96
2023-03-06T11:33:51.188Z,7.03
2023-03-06T11:38:53.967Z,6.06
2023-03-06T11:44:04.549Z,5.77
2023-03-06T11:49:22.102Z,5.85
2023-03-06T11:54:23.648Z,6.19
2023-03-06T11:59:43.609Z,6.15
2023-03-06T12:04:57.294Z,6.45
2023-03-06T12:10:01.684Z,6.38
2023-03-06T12:15:19.388Z,6.45
2023-03-06T12:20:20.721Z,6.90
2023-03-06T12:25:22.355Z,6.84
2023-03-06T12:30:29.486Z,6.78
2023-03-06T12:35:48.227Z,6.95
2023-03-06T12:41:08.103Z,7.07
2023-03-06T12:46:12.386Z,7.35
2023-03-06T12:51:16.860Z,7.26
2023-03-06T12:56:18.933Z,6.71
2023-03-06T13:01:38.873Z,7.05
2023-03-06T13:06:58.838Z,6.96
2023-03-06T13:12:09.827Z,6.83
2023-03-06T13:17:34.295Z,6.76
2023-03-06T13:22:35.758Z,6.62
2023-03-06T13:27:52.670Z,6.49
2023-03-06T13:32:55.006Z,6.16
2023-03-06T13:37:56.808Z,6.03
2023-03-06T13:43:06.990Z,6.13
2023-03-06T13:48:42.729Z,6.58
2023-03-06T13:53:44.690Z,6.89
2023-03-06T13:59:04.934Z,6.81
2023-03-06T14:04:12.300Z,6.77
2023-03-06T14:09:18.893Z,6.67
2023-03-06T14:14:27.916Z,6.55
2023-03-06T14:19:31.239Z,6.58
2023-03-06T14:24:38.164Z,6.59
2023-03-06T14:29:39.475Z,6.23
2023-03-06T14:34:45.439Z,6.22
2023-03-06T14:39:46.924Z,6.18
2023-03-06T14:44:49.207Z,5.95
2023-03-06T14:50:09.581Z,5.80
2023-03-06T14:55:12.083Z,5.96
2023-03-06T15:00:17.290Z,5.81
2023-03-06T15:05:21.697Z,5.83
2023-03-06T15:10:24.578Z,5.85
2023-03-06T15:15:27.452Z,5.68
2023-03-06T15:20:42.805Z,5.53
2023-03-06T15:25:55.181Z,5.26
2023-03-06T15:31:04.081Z,5.36
2023-03-06T15:36:06.409Z,5.22
2023-03-06T15:41:20.709Z,4.96
2023-03-06T15:46:22.020Z,5.04
2023-03-06T15:51:23.388Z,4.84
2023-03-06T15:56:28.527Z,4.79
2023-03-06T16:01:29.922Z,4.82
2023-03-06T16:06:31.276Z,4.68
2023-03-06T16:11:43.292Z,4.54
2023-03-06T16:16:45.162Z,4.42
2023-03-06T16:21:46.552Z,4.47
2023-03-06T16:26:50.782Z,4.45
2023-03-06T16:31:52.252Z,4.65
2023-03-06T16:36:53.548Z,4.42
2023-03-06T16:41:55.153Z,4.42
2023-03-06T16:46:59.948Z,4.48
2023-03-06T16:52:01.261Z,4.32
2023-03-06T16:57:02.585Z,4.16
2023-03-06T17:02:03.918Z,4.07
2023-03-06T17:07:05.228Z,4.02
2023-03-06T17:12:06.675Z,3.96
2023-03-06T17:17:08.000Z,3.94
2023-03-06T17:22:09.298Z,4.03
2023-03-06T17:27:10.769Z,3.88
2023-03-06T17:32:12.422Z,3.85
2023-03-06T17:37:13.817Z,3.82
2023-03-06T17:42:15.548Z,3.82
2023-03-06T17:47:16.872Z,3.80
2023-03-06T17:52:18.201Z,3.73
2023-03-06T17:57:19.493Z,3.57
2023-03-06T18:02:20.812Z,3.62
2023-03-06T18:07:22.437Z,3.65
2023-03-06T18:12:23.771Z,3.64
2023-03-06T18:17:25.127Z,3.62
2023-03-06T18:22:26.489Z,3.58
2023-03-06T18:27:27.802Z,3.40
2023-03-06T18:32:29.177Z,3.17
2023-03-06T18:37:30.559Z,3.00
2023-03-06T18:42:31.862Z,2.88
2023-03-06T18:47:33.693Z,2.49
2023-03-06T18:52:35.041Z,2.30
2023-03-06T18:57:36.407Z,2.26
2023-03-06T19:02:37.727Z,2.34
2023-03-06T19:07:39.031Z,2.28
2023-03-06T19:12:40.337Z,2.07
2023-03-06T19:17:41.634Z,1.92
2023-03-06T19:22:42.928Z,1.92
2023-03-06T19:27:45.978Z,1.96
2023-03-06T19:32:47.397Z,2.27
2023-03-06T19:37:48.767Z,2.76
2023-03-06T19:42:50.768Z,2.94
2023-03-06T19:47:55.386Z,3.05
2023-03-06T19:52:57.419Z,3.05
2023-03-06T19:57:58.743Z,3.15
2023-03-06T20:03:00.117Z,3.23
2023-03-06T20:08:01.468Z,3.18
2023-03-06T20:13:02.742Z,3.18
2023-03-06T20:18:05.791Z,3.16
2023-03-06T20:23:07.077Z,3.18
2023-03-06T20:28:08.381Z,3.14
2023-03-06T20:33:09.673Z,3.07
2023-03-06T20:38:11.214Z,3.07
2023-03-06T20:43:12.509Z,3.10
2023-03-06T20:48:13.804Z,3.06
2023-03-06T20:53:15.116Z,3.08
2023-03-06T20:58:16.639Z,3.18
2023-03-06T21:03:17.966Z,3.20
2023-03-06T21:08:19.303Z,3.23
2023-03-06T21:13:20.619Z,3.23
2023-03-06T21:18:21.911Z,3.22
2023-03-06T21:23:23.213Z,3.25
2023-03-06T21:28:24.888Z,3.28
2023-03-06T21:33:26.344Z,3.28
2023-03-06T21:38:27.727Z,3.27
2023-03-06T21:43:29.036Z,3.32
2023-03-06T21:48:30.653Z,3.29
2023-03-06T21:53:32.201Z,3.29
2023-03-06T21:58:33.577Z,3.26
2023-03-06T22:03:34.913Z,3.32
2023-03-06T22:08:36.371Z,3.38
2023-03-06T22:13:38.036Z,3.27
2023-03-06T22:18:39.413Z,3.40
2023-03-06T22:23:40.833Z,3.60
2023-03-06T22:28:42.181Z,3.59
2023-03-06T22:33:43.478Z,3.54
2023-03-06T22:38:46.141Z,3.65
2023-03-06T22:43:47.688Z,3.71
2023-03-06T22:48:49.122Z,3.70
2023-03-06T22:53:50.676Z,3.67
2023-03-06T22:58:52.160Z,3.69
2023-03-06T23:03:54.900Z,3.66
2023-03-06T23:09:00.824Z,3.66
2023-03-06T23:14:02.327Z,3.71
2023-03-06T23:19:04.387Z,3.68
2023-03-06T23:24:06.842Z,3.67
2023-03-06T23:29:08.138Z,3.64
2023-03-06T23:34:11.448Z,3.70
2023-03-06T23:39:12.808Z,3.74
2023-03-06T23:44:14.135Z,3.71
2023-03-06T23:49:15.450Z,3.71
2023-03-06T23:54:18.178Z,3.82
2023-03-06T23:59:19.501Z,3.86
